sensor_id;sensor_type;location;lat;lon;timestamp;P1;durP1;ratioP1;P2;durP2;ratioP2
63492;SDS011;49638;47.526;10.028;2023-10-19T00:02:51;1.60;;;1.27;;
63492;SDS011;49638;47.526;10.028;2023-10-19T00:05:52;1.65;;;1.15;;
63492;SDS011;49638;47.526;10.028;2023-10-19T00:08:52;1.92;;;1.20;;
63492;SDS011;49638;47.526;10.028;2023-10-19T00:11:53;1.90;;;1.30;;
63492;SDS011;49638;47.526;10.028;2023-10-19T00:14:53;2.90;;;1.45;;
63492;SDS011;49638;47.526;10.028;2023-10-19T00:17:54;4.65;;;1.17;;
63492;SDS011;49638;47.526;10.028;2023-10-19T00:20:54;3.85;;;1.27;;
63492;SDS011;49638;47.526;10.028;2023-10-19T00:24:14;1.98;;;1.23;;
63492;SDS011;49638;47.526;10.028;2023-10-19T00:27:16;2.08;;;1.20;;
63492;SDS011;49638;47.526;10.028;2023-10-19T00:30:19;4.18;;;1.50;;
63492;SDS011;49638;47.526;10.028;2023-10-19T00:33:23;4.10;;;1.73;;
63492;SDS011;49638;47.526;10.028;2023-10-19T00:36:28;3.63;;;1.48;;
63492;SDS011;49638;47.526;10.028;2023-10-19T00:39:31;3.58;;;1.60;;
63492;SDS011;49638;47.526;10.028;2023-10-19T00:42:41;2.10;;;1.55;;
63492;SDS011;49638;47.526;10.028;2023-10-19T00:45:46;3.63;;;1.65;;
63492;SDS011;49638;47.526;10.028;2023-10-19T00:48:48;2.22;;;1.50;;
63492;SDS011;49638;47.526;10.028;2023-10-19T00:51:56;2.47;;;1.70;;
63492;SDS011;49638;47.526;10.028;2023-10-19T00:55:02;3.92;;;1.80;;
63492;SDS011;49638;47.526;10.028;2023-10-19T00:58:04;3.38;;;1.95;;
63492;SDS011;49638;47.526;10.028;2023-10-19T01:01:09;3.08;;;1.90;;
63492;SDS011;49638;47.526;10.028;2023-10-19T01:04:10;5.38;;;2.20;;
63492;SDS011;49638;47.526;10.028;2023-10-19T01:07:14;3.97;;;2.25;;
63492;SDS011;49638;47.526;10.028;2023-10-19T01:10:15;5.00;;;2.42;;
63492;SDS011;49638;47.526;10.028;2023-10-19T01:13:21;3.88;;;2.15;;
63492;SDS011;49638;47.526;10.028;2023-10-19T01:16:27;4.00;;;1.88;;
63492;SDS011;49638;47.526;10.028;2023-10-19T01:19:27;3.90;;;1.90;;
63492;SDS011;49638;47.526;10.028;2023-10-19T01:22:27;2.10;;;1.40;;
63492;SDS011;49638;47.526;10.028;2023-10-19T01:25:27;4.35;;;1.50;;
63492;SDS011;49638;47.526;10.028;2023-10-19T01:28:35;2.35;;;1.65;;
63492;SDS011;49638;47.526;10.028;2023-10-19T01:31:51;2.85;;;1.90;;
63492;SDS011;49638;47.526;10.028;2023-10-19T01:35:06;2.55;;;1.95;;
63492;SDS011;49638;47.526;10.028;2023-10-19T01:38:07;2.53;;;1.48;;
63492;SDS011;49638;47.526;10.028;2023-10-19T01:41:08;3.35;;;2.20;;
63492;SDS011;49638;47.526;10.028;2023-10-19T01:44:21;2.95;;;1.98;;
63492;SDS011;49638;47.526;10.028;2023-10-19T01:47:21;2.15;;;1.70;;
63492;SDS011;49638;47.526;10.028;2023-10-19T01:50:22;4.43;;;2.10;;
63492;SDS011;49638;47.526;10.028;2023-10-19T01:53:23;2.30;;;1.70;;
63492;SDS011;49638;47.526;10.028;2023-10-19T01:56:25;3.22;;;2.38;;
63492;SDS011;49638;47.526;10.028;2023-10-19T01:59:26;3.45;;;2.05;;
63492;SDS011;49638;47.526;10.028;2023-10-19T02:02:27;2.97;;;2.13;;
63492;SDS011;49638;47.526;10.028;2023-10-19T02:05:28;4.75;;;1.95;;
63492;SDS011;49638;47.526;10.028;2023-10-19T02:08:39;2.05;;;1.70;;
63492;SDS011;49638;47.526;10.028;2023-10-19T02:11:39;2.20;;;1.67;;
63492;SDS011;49638;47.526;10.028;2023-10-19T02:14:41;3.53;;;2.00;;
63492;SDS011;49638;47.526;10.028;2023-10-19T02:17:43;4.50;;;2.05;;
63492;SDS011;49638;47.526;10.028;2023-10-19T02:20:44;4.10;;;2.20;;
63492;SDS011;49638;47.526;10.028;2023-10-19T02:26:50;4.72;;;2.40;;
63492;SDS011;49638;47.526;10.028;2023-10-19T02:29:52;5.57;;;2.47;;
63492;SDS011;49638;47.526;10.028;2023-10-19T02:32:52;3.35;;;2.38;;
63492;SDS011;49638;47.526;10.028;2023-10-19T02:35:53;3.42;;;2.10;;
63492;SDS011;49638;47.526;10.028;2023-10-19T02:38:57;5.18;;;2.38;;
63492;SDS011;49638;47.526;10.028;2023-10-19T02:41:58;3.22;;;2.30;;
63492;SDS011;49638;47.526;10.028;2023-10-19T02:45:01;4.60;;;2.30;;
63492;SDS011;49638;47.526;10.028;2023-10-19T02:48:01;2.35;;;2.08;;
63492;SDS011;49638;47.526;10.028;2023-10-19T02:51:04;5.00;;;2.40;;
63492;SDS011;49638;47.526;10.028;2023-10-19T02:54:14;4.10;;;2.40;;
63492;SDS011;49638;47.526;10.028;2023-10-19T02:57:25;3.05;;;2.33;;
63492;SDS011;49638;47.526;10.028;2023-10-19T03:00:25;3.45;;;2.50;;
63492;SDS011;49638;47.526;10.028;2023-10-19T03:03:34;4.40;;;2.75;;
63492;SDS011;49638;47.526;10.028;2023-10-19T03:06:34;3.75;;;2.38;;
63492;SDS011;49638;47.526;10.028;2023-10-19T03:09:35;3.33;;;2.40;;
63492;SDS011;49638;47.526;10.028;2023-10-19T03:12:36;4.20;;;2.38;;
63492;SDS011;49638;47.526;10.028;2023-10-19T03:15:36;5.63;;;2.55;;
63492;SDS011;49638;47.526;10.028;2023-10-19T03:18:42;6.20;;;2.90;;
63492;SDS011;49638;47.526;10.028;2023-10-19T03:21:43;4.93;;;2.58;;
63492;SDS011;49638;47.526;10.028;2023-10-19T03:24:52;4.60;;;2.95;;
63492;SDS011;49638;47.526;10.028;2023-10-19T03:28:12;3.40;;;2.58;;
63492;SDS011;49638;47.526;10.028;2023-10-19T03:31:13;3.63;;;2.72;;
63492;SDS011;49638;47.526;10.028;2023-10-19T03:34:17;3.90;;;2.78;;
63492;SDS011;49638;47.526;10.028;2023-10-19T03:37:18;3.50;;;3.03;;
63492;SDS011;49638;47.526;10.028;2023-10-19T03:40:19;4.45;;;2.83;;
63492;SDS011;49638;47.526;10.028;2023-10-19T03:43:31;8.85;;;4.32;;
63492;SDS011;49638;47.526;10.028;2023-10-19T03:46:31;7.28;;;3.20;;
63492;SDS011;49638;47.526;10.028;2023-10-19T03:49:31;2.97;;;2.50;;
63492;SDS011;49638;47.526;10.028;2023-10-19T03:52:38;3.88;;;2.58;;
63492;SDS011;49638;47.526;10.028;2023-10-19T03:55:39;3.92;;;2.80;;
63492;SDS011;49638;47.526;10.028;2023-10-19T04:01:47;3.03;;;2.58;;
63492;SDS011;49638;47.526;10.028;2023-10-19T04:04:48;5.10;;;2.83;;
63492;SDS011;49638;47.526;10.028;2023-10-19T04:07:48;4.32;;;2.42;;
63492;SDS011;49638;47.526;10.028;2023-10-19T04:10:55;3.78;;;2.47;;
63492;SDS011;49638;47.526;10.028;2023-10-19T04:14:11;4.72;;;2.42;;
63492;SDS011;49638;47.526;10.028;2023-10-19T04:17:15;4.28;;;2.78;;
63492;SDS011;49638;47.526;10.028;2023-10-19T04:20:17;5.05;;;2.50;;
63492;SDS011;49638;47.526;10.028;2023-10-19T04:23:18;4.93;;;2.70;;
63492;SDS011;49638;47.526;10.028;2023-10-19T04:26:20;4.25;;;2.65;;
63492;SDS011;49638;47.526;10.028;2023-10-19T04:29:21;2.83;;;2.42;;
63492;SDS011;49638;47.526;10.028;2023-10-19T04:32:27;4.18;;;2.70;;
63492;SDS011;49638;47.526;10.028;2023-10-19T04:35:27;4.35;;;2.40;;
63492;SDS011;49638;47.526;10.028;2023-10-19T04:38:34;7.22;;;2.85;;
63492;SDS011;49638;47.526;10.028;2023-10-19T04:41:34;2.97;;;2.47;;
63492;SDS011;49638;47.526;10.028;2023-10-19T04:44:35;4.88;;;2.70;;
63492;SDS011;49638;47.526;10.028;2023-10-19T04:47:35;4.57;;;2.22;;
63492;SDS011;49638;47.526;10.028;2023-10-19T04:50:35;4.22;;;2.05;;
63492;SDS011;49638;47.526;10.028;2023-10-19T04:53:36;4.38;;;2.65;;
63492;SDS011;49638;47.526;10.028;2023-10-19T04:56:37;3.88;;;2.58;;
63492;SDS011;49638;47.526;10.028;2023-10-19T04:59:38;4.00;;;2.67;;
63492;SDS011;49638;47.526;10.028;2023-10-19T05:02:38;3.13;;;2.00;;
63492;SDS011;49638;47.526;10.028;2023-10-19T05:05:39;4.45;;;2.65;;
63492;SDS011;49638;47.526;10.028;2023-10-19T05:08:39;5.20;;;3.08;;
63492;SDS011;49638;47.526;10.028;2023-10-19T05:11:40;6.65;;;3.25;;
63492;SDS011;49638;47.526;10.028;2023-10-19T05:14:40;7.00;;;2.90;;
63492;SDS011;49638;47.526;10.028;2023-10-19T05:17:42;5.22;;;2.40;;
63492;SDS011;49638;47.526;10.028;2023-10-19T05:20:42;5.88;;;3.30;;
63492;SDS011;49638;47.526;10.028;2023-10-19T05:23:43;4.70;;;2.20;;
63492;SDS011;49638;47.526;10.028;2023-10-19T05:26:43;4.45;;;2.80;;
63492;SDS011;49638;47.526;10.028;2023-10-19T05:29:43;6.05;;;2.90;;
63492;SDS011;49638;47.526;10.028;2023-10-19T05:32:44;3.80;;;2.45;;
63492;SDS011;49638;47.526;10.028;2023-10-19T05:35:47;20.90;;;8.52;;
63492;SDS011;49638;47.526;10.028;2023-10-19T05:38:47;21.50;;;8.13;;
63492;SDS011;49638;47.526;10.028;2023-10-19T05:41:48;19.10;;;7.00;;
63492;SDS011;49638;47.526;10.028;2023-10-19T05:44:48;7.55;;;3.72;;
63492;SDS011;49638;47.526;10.028;2023-10-19T05:47:48;4.47;;;3.17;;
63492;SDS011;49638;47.526;10.028;2023-10-19T05:50:49;12.45;;;5.28;;
63492;SDS011;49638;47.526;10.028;2023-10-19T05:53:49;14.90;;;6.75;;
63492;SDS011;49638;47.526;10.028;2023-10-19T05:56:51;9.60;;;5.78;;
63492;SDS011;49638;47.526;10.028;2023-10-19T05:59:52;9.80;;;5.35;;
63492;SDS011;49638;47.526;10.028;2023-10-19T06:02:52;7.93;;;3.85;;
63492;SDS011;49638;47.526;10.028;2023-10-19T06:05:53;5.43;;;3.03;;
63492;SDS011;49638;47.526;10.028;2023-10-19T06:08:56;10.50;;;7.93;;
63492;SDS011;49638;47.526;10.028;2023-10-19T06:11:57;7.22;;;3.90;;
63492;SDS011;49638;47.526;10.028;2023-10-19T06:14:58;5.35;;;2.92;;
63492;SDS011;49638;47.526;10.028;2023-10-19T06:18:00;4.68;;;2.80;;
63492;SDS011;49638;47.526;10.028;2023-10-19T06:21:00;4.60;;;2.60;;
63492;SDS011;49638;47.526;10.028;2023-10-19T06:24:00;7.03;;;3.53;;
63492;SDS011;49638;47.526;10.028;2023-10-19T06:27:02;7.88;;;4.03;;
63492;SDS011;49638;47.526;10.028;2023-10-19T06:30:04;6.38;;;3.10;;
63492;SDS011;49638;47.526;10.028;2023-10-19T06:33:04;5.10;;;3.10;;
63492;SDS011;49638;47.526;10.028;2023-10-19T06:36:05;7.30;;;3.67;;
63492;SDS011;49638;47.526;10.028;2023-10-19T06:39:05;5.53;;;2.92;;
63492;SDS011;49638;47.526;10.028;2023-10-19T06:42:09;5.00;;;2.47;;
63492;SDS011;49638;47.526;10.028;2023-10-19T06:45:13;9.23;;;3.60;;
63492;SDS011;49638;47.526;10.028;2023-10-19T06:48:15;6.88;;;3.38;;
63492;SDS011;49638;47.526;10.028;2023-10-19T06:51:15;7.22;;;3.20;;
63492;SDS011;49638;47.526;10.028;2023-10-19T06:54:16;8.70;;;3.60;;
63492;SDS011;49638;47.526;10.028;2023-10-19T06:57:17;5.28;;;2.90;;
63492;SDS011;49638;47.526;10.028;2023-10-19T07:00:18;4.80;;;2.50;;
63492;SDS011;49638;47.526;10.028;2023-10-19T07:03:19;4.63;;;2.47;;
63492;SDS011;49638;47.526;10.028;2023-10-19T07:06:20;6.32;;;2.30;;
63492;SDS011;49638;47.526;10.028;2023-10-19T07:09:20;4.50;;;2.65;;
63492;SDS011;49638;47.526;10.028;2023-10-19T07:12:21;4.18;;;2.22;;
63492;SDS011;49638;47.526;10.028;2023-10-19T07:15:23;6.57;;;3.38;;
63492;SDS011;49638;47.526;10.028;2023-10-19T07:18:25;5.45;;;3.05;;
63492;SDS011;49638;47.526;10.028;2023-10-19T07:21:25;5.45;;;2.90;;
63492;SDS011;49638;47.526;10.028;2023-10-19T07:24:29;4.85;;;2.83;;
63492;SDS011;49638;47.526;10.028;2023-10-19T07:27:29;7.45;;;2.63;;
63492;SDS011;49638;47.526;10.028;2023-10-19T07:30:30;5.47;;;3.20;;
63492;SDS011;49638;47.526;10.028;2023-10-19T07:33:30;5.45;;;2.75;;
63492;SDS011;49638;47.526;10.028;2023-10-19T07:36:31;8.07;;;2.78;;
63492;SDS011;49638;47.526;10.028;2023-10-19T07:39:31;4.35;;;2.58;;
63492;SDS011;49638;47.526;10.028;2023-10-19T07:42:33;3.95;;;2.38;;
63492;SDS011;49638;47.526;10.028;2023-10-19T07:45:36;4.53;;;1.98;;
63492;SDS011;49638;47.526;10.028;2023-10-19T07:48:37;4.03;;;2.60;;
63492;SDS011;49638;47.526;10.028;2023-10-19T07:51:38;6.68;;;2.60;;
63492;SDS011;49638;47.526;10.028;2023-10-19T07:54:39;5.68;;;2.50;;
63492;SDS011;49638;47.526;10.028;2023-10-19T07:57:39;3.38;;;2.30;;
63492;SDS011;49638;47.526;10.028;2023-10-19T08:00:40;3.50;;;2.20;;
63492;SDS011;49638;47.526;10.028;2023-10-19T08:03:42;3.00;;;2.08;;
63492;SDS011;49638;47.526;10.028;2023-10-19T08:06:42;3.78;;;2.30;;
63492;SDS011;49638;47.526;10.028;2023-10-19T08:09:43;5.10;;;2.28;;
63492;SDS011;49638;47.526;10.028;2023-10-19T08:12:44;4.63;;;2.30;;
63492;SDS011;49638;47.526;10.028;2023-10-19T08:15:47;5.85;;;2.35;;
63492;SDS011;49638;47.526;10.028;2023-10-19T08:18:47;7.15;;;2.70;;
63492;SDS011;49638;47.526;10.028;2023-10-19T08:21:48;7.40;;;2.60;;
63492;SDS011;49638;47.526;10.028;2023-10-19T08:24:49;5.72;;;2.50;;
63492;SDS011;49638;47.526;10.028;2023-10-19T08:27:52;3.72;;;2.55;;
63492;SDS011;49638;47.526;10.028;2023-10-19T08:30:56;4.78;;;2.75;;
63492;SDS011;49638;47.526;10.028;2023-10-19T08:33:56;4.35;;;3.35;;
63492;SDS011;49638;47.526;10.028;2023-10-19T08:36:57;6.32;;;2.50;;
63492;SDS011;49638;47.526;10.028;2023-10-19T08:39:57;3.10;;;2.38;;
63492;SDS011;49638;47.526;10.028;2023-10-19T08:42:58;4.57;;;2.38;;
63492;SDS011;49638;47.526;10.028;2023-10-19T08:45:59;6.45;;;2.70;;
63492;SDS011;49638;47.526;10.028;2023-10-19T08:48:59;4.88;;;2.15;;
63492;SDS011;49638;47.526;10.028;2023-10-19T08:52:00;4.03;;;2.53;;
63492;SDS011;49638;47.526;10.028;2023-10-19T08:55:04;3.25;;;2.30;;
63492;SDS011;49638;47.526;10.028;2023-10-19T08:58:05;5.13;;;2.40;;
63492;SDS011;49638;47.526;10.028;2023-10-19T09:01:05;5.00;;;2.63;;
63492;SDS011;49638;47.526;10.028;2023-10-19T09:04:10;3.83;;;2.33;;
63492;SDS011;49638;47.526;10.028;2023-10-19T09:07:11;3.53;;;2.80;;
63492;SDS011;49638;47.526;10.028;2023-10-19T09:10:11;3.95;;;2.80;;
63492;SDS011;49638;47.526;10.028;2023-10-19T09:13:16;5.63;;;2.55;;
63492;SDS011;49638;47.526;10.028;2023-10-19T09:16:19;5.13;;;2.85;;
63492;SDS011;49638;47.526;10.028;2023-10-19T09:19:21;4.30;;;2.53;;
63492;SDS011;49638;47.526;10.028;2023-10-19T09:22:36;4.85;;;2.63;;
63492;SDS011;49638;47.526;10.028;2023-10-19T09:25:37;4.63;;;2.58;;
63492;SDS011;49638;47.526;10.028;2023-10-19T09:28:40;2.57;;;2.17;;
63492;SDS011;49638;47.526;10.028;2023-10-19T09:31:40;6.30;;;3.47;;
63492;SDS011;49638;47.526;10.028;2023-10-19T09:34:41;13.85;;;8.77;;
63492;SDS011;49638;47.526;10.028;2023-10-19T09:37:44;7.25;;;3.72;;
63492;SDS011;49638;47.526;10.028;2023-10-19T09:40:44;3.80;;;2.60;;
63492;SDS011;49638;47.526;10.028;2023-10-19T09:43:46;2.67;;;2.05;;
63492;SDS011;49638;47.526;10.028;2023-10-19T09:46:48;8.45;;;2.63;;
63492;SDS011;49638;47.526;10.028;2023-10-19T09:49:50;6.32;;;3.03;;
63492;SDS011;49638;47.526;10.028;2023-10-19T09:52:50;5.10;;;3.00;;
63492;SDS011;49638;47.526;10.028;2023-10-19T09:55:51;5.20;;;2.88;;
63492;SDS011;49638;47.526;10.028;2023-10-19T09:59:02;4.45;;;2.83;;
63492;SDS011;49638;47.526;10.028;2023-10-19T10:08:44;2.42;;;1.60;;
63492;SDS011;49638;47.526;10.028;2023-10-19T10:11:45;3.85;;;1.77;;
63492;SDS011;49638;47.526;10.028;2023-10-19T10:18:11;2.88;;;1.85;;
63492;SDS011;49638;47.526;10.028;2023-10-19T10:21:14;8.73;;;3.90;;
63492;SDS011;49638;47.526;10.028;2023-10-19T10:24:16;3.65;;;1.88;;
63492;SDS011;49638;47.526;10.028;2023-10-19T10:27:17;3.75;;;1.60;;
63492;SDS011;49638;47.526;10.028;2023-10-19T10:30:19;3.20;;;1.38;;
63492;SDS011;49638;47.526;10.028;2023-10-19T10:33:38;3.15;;;1.58;;
63492;SDS011;49638;47.526;10.028;2023-10-19T10:40:00;2.55;;;1.60;;
63492;SDS011;49638;47.526;10.028;2023-10-19T10:43:04;4.28;;;1.88;;
63492;SDS011;49638;47.526;10.028;2023-10-19T10:46:05;2.70;;;2.20;;
63492;SDS011;49638;47.526;10.028;2023-10-19T10:49:10;3.95;;;1.80;;
63492;SDS011;49638;47.526;10.028;2023-10-19T10:52:11;3.15;;;1.90;;
63492;SDS011;49638;47.526;10.028;2023-10-19T10:55:12;2.53;;;1.67;;
63492;SDS011;49638;47.526;10.028;2023-10-19T10:58:17;2.75;;;1.55;;
63492;SDS011;49638;47.526;10.028;2023-10-19T11:01:27;4.50;;;2.53;;
63492;SDS011;49638;47.526;10.028;2023-10-19T11:04:29;5.00;;;2.13;;
63492;SDS011;49638;47.526;10.028;2023-10-19T11:07:29;3.53;;;2.05;;
63492;SDS011;49638;47.526;10.028;2023-10-19T11:10:30;5.57;;;2.20;;
63492;SDS011;49638;47.526;10.028;2023-10-19T11:13:30;4.40;;;2.38;;
63492;SDS011;49638;47.526;10.028;2023-10-19T11:16:33;7.20;;;2.80;;
63492;SDS011;49638;47.526;10.028;2023-10-19T11:19:37;4.35;;;2.13;;
63492;SDS011;49638;47.526;10.028;2023-10-19T11:22:50;5.30;;;2.00;;
63492;SDS011;49638;47.526;10.028;2023-10-19T11:25:57;5.82;;;2.20;;
63492;SDS011;49638;47.526;10.028;2023-10-19T11:28:58;2.92;;;2.22;;
63492;SDS011;49638;47.526;10.028;2023-10-19T11:32:04;3.40;;;2.40;;
63492;SDS011;49638;47.526;10.028;2023-10-19T11:35:06;4.63;;;2.67;;
63492;SDS011;49638;47.526;10.028;2023-10-19T11:38:09;4.35;;;2.90;;
63492;SDS011;49638;47.526;10.028;2023-10-19T11:41:13;7.00;;;2.53;;
63492;SDS011;49638;47.526;10.028;2023-10-19T11:44:14;4.80;;;2.13;;
63492;SDS011;49638;47.526;10.028;2023-10-19T11:47:15;4.20;;;1.88;;
63492;SDS011;49638;47.526;10.028;2023-10-19T11:50:15;2.55;;;1.85;;
63492;SDS011;49638;47.526;10.028;2023-10-19T11:53:15;5.90;;;1.73;;
63492;SDS011;49638;47.526;10.028;2023-10-19T11:56:16;2.75;;;1.83;;
63492;SDS011;49638;47.526;10.028;2023-10-19T11:59:16;8.45;;;1.75;;
63492;SDS011;49638;47.526;10.028;2023-10-19T12:02:17;2.85;;;1.75;;
63492;SDS011;49638;47.526;10.028;2023-10-19T12:05:18;3.90;;;1.80;;
63492;SDS011;49638;47.526;10.028;2023-10-19T12:08:19;3.55;;;1.90;;
63492;SDS011;49638;47.526;10.028;2023-10-19T12:11:19;3.92;;;2.10;;
63492;SDS011;49638;47.526;10.028;2023-10-19T12:14:19;3.92;;;2.20;;
63492;SDS011;49638;47.526;10.028;2023-10-19T12:17:21;5.43;;;2.28;;
63492;SDS011;49638;47.526;10.028;2023-10-19T12:20:22;3.72;;;2.25;;
63492;SDS011;49638;47.526;10.028;2023-10-19T12:23:22;3.97;;;1.90;;
63492;SDS011;49638;47.526;10.028;2023-10-19T12:26:24;5.03;;;2.10;;
63492;SDS011;49638;47.526;10.028;2023-10-19T12:29:24;3.08;;;1.95;;
63492;SDS011;49638;47.526;10.028;2023-10-19T12:32:25;6.53;;;2.05;;
63492;SDS011;49638;47.526;10.028;2023-10-19T12:35:28;2.37;;;1.60;;
63492;SDS011;49638;47.526;10.028;2023-10-19T12:38:44;5.93;;;2.20;;
63492;SDS011;49638;47.526;10.028;2023-10-19T12:41:45;4.25;;;2.20;;
63492;SDS011;49638;47.526;10.028;2023-10-19T12:44:47;7.47;;;2.30;;
63492;SDS011;49638;47.526;10.028;2023-10-19T12:47:47;2.33;;;1.83;;
63492;SDS011;49638;47.526;10.028;2023-10-19T12:50:48;4.53;;;2.08;;
63492;SDS011;49638;47.526;10.028;2023-10-19T12:53:49;3.10;;;2.25;;
63492;SDS011;49638;47.526;10.028;2023-10-19T12:56:51;4.68;;;2.08;;
63492;SDS011;49638;47.526;10.028;2023-10-19T12:59:53;4.60;;;2.10;;
63492;SDS011;49638;47.526;10.028;2023-10-19T13:02:53;5.18;;;2.55;;
63492;SDS011;49638;47.526;10.028;2023-10-19T13:06:00;5.45;;;2.28;;
63492;SDS011;49638;47.526;10.028;2023-10-19T13:09:05;5.15;;;2.40;;
63492;SDS011;49638;47.526;10.028;2023-10-19T13:12:05;4.25;;;2.10;;
63492;SDS011;49638;47.526;10.028;2023-10-19T13:15:07;5.82;;;2.40;;
63492;SDS011;49638;47.526;10.028;2023-10-19T13:18:13;4.70;;;2.50;;
63492;SDS011;49638;47.526;10.028;2023-10-19T13:21:19;4.53;;;2.47;;
63492;SDS011;49638;47.526;10.028;2023-10-19T13:24:26;6.15;;;2.33;;
63492;SDS011;49638;47.526;10.028;2023-10-19T13:27:27;5.28;;;2.25;;
63492;SDS011;49638;47.526;10.028;2023-10-19T13:30:29;6.80;;;2.60;;
63492;SDS011;49638;47.526;10.028;2023-10-19T13:33:29;4.07;;;2.65;;
63492;SDS011;49638;47.526;10.028;2023-10-19T13:36:30;3.47;;;2.20;;
63492;SDS011;49638;47.526;10.028;2023-10-19T13:39:30;3.35;;;2.05;;
63492;SDS011;49638;47.526;10.028;2023-10-19T13:42:32;4.95;;;2.53;;
63492;SDS011;49638;47.526;10.028;2023-10-19T13:45:35;4.15;;;2.50;;
63492;SDS011;49638;47.526;10.028;2023-10-19T13:48:36;6.18;;;2.53;;
63492;SDS011;49638;47.526;10.028;2023-10-19T13:51:39;4.72;;;2.38;;
63492;SDS011;49638;47.526;10.028;2023-10-19T13:54:39;7.25;;;2.40;;
63492;SDS011;49638;47.526;10.028;2023-10-19T13:57:39;3.92;;;2.17;;
63492;SDS011;49638;47.526;10.028;2023-10-19T14:00:43;3.88;;;2.60;;
63492;SDS011;49638;47.526;10.028;2023-10-19T14:03:44;5.75;;;2.95;;
63492;SDS011;49638;47.526;10.028;2023-10-19T14:06:44;2.97;;;2.40;;
63492;SDS011;49638;47.526;10.028;2023-10-19T14:09:49;3.95;;;2.47;;
63492;SDS011;49638;47.526;10.028;2023-10-19T14:12:49;9.43;;;2.50;;
63492;SDS011;49638;47.526;10.028;2023-10-19T14:15:49;4.05;;;2.40;;
63492;SDS011;49638;47.526;10.028;2023-10-19T14:18:49;4.68;;;2.30;;
63492;SDS011;49638;47.526;10.028;2023-10-19T14:21:50;3.97;;;2.58;;
63492;SDS011;49638;47.526;10.028;2023-10-19T14:24:51;7.03;;;2.60;;
63492;SDS011;49638;47.526;10.028;2023-10-19T14:27:52;4.57;;;2.47;;
63492;SDS011;49638;47.526;10.028;2023-10-19T14:31:06;4.20;;;2.42;;
63492;SDS011;49638;47.526;10.028;2023-10-19T14:34:10;4.00;;;2.13;;
63492;SDS011;49638;47.526;10.028;2023-10-19T14:37:11;3.53;;;2.15;;
63492;SDS011;49638;47.526;10.028;2023-10-19T14:40:16;4.25;;;2.40;;
63492;SDS011;49638;47.526;10.028;2023-10-19T14:43:17;9.40;;;3.28;;
63492;SDS011;49638;47.526;10.028;2023-10-19T14:46:17;5.25;;;2.60;;
63492;SDS011;49638;47.526;10.028;2023-10-19T14:49:18;2.35;;;2.15;;
63492;SDS011;49638;47.526;10.028;2023-10-19T14:52:18;3.63;;;2.60;;
63492;SDS011;49638;47.526;10.028;2023-10-19T14:55:20;5.10;;;2.47;;
63492;SDS011;49638;47.526;10.028;2023-10-19T14:58:21;4.70;;;2.72;;
63492;SDS011;49638;47.526;10.028;2023-10-19T15:01:22;5.28;;;2.53;;
63492;SDS011;49638;47.526;10.028;2023-10-19T15:07:25;5.60;;;2.73;;
63492;SDS011;49638;47.526;10.028;2023-10-19T15:10:26;4.13;;;2.67;;
63492;SDS011;49638;47.526;10.028;2023-10-19T15:13:27;5.57;;;2.60;;
63492;SDS011;49638;47.526;10.028;2023-10-19T15:16:27;4.50;;;2.70;;
63492;SDS011;49638;47.526;10.028;2023-10-19T15:19:28;5.60;;;2.30;;
63492;SDS011;49638;47.526;10.028;2023-10-19T15:22:28;5.90;;;2.83;;
63492;SDS011;49638;47.526;10.028;2023-10-19T15:25:28;5.10;;;2.53;;
63492;SDS011;49638;47.526;10.028;2023-10-19T15:28:29;6.38;;;2.80;;
63492;SDS011;49638;47.526;10.028;2023-10-19T15:31:33;4.65;;;2.70;;
63492;SDS011;49638;47.526;10.028;2023-10-19T15:34:33;5.50;;;2.85;;
63492;SDS011;49638;47.526;10.028;2023-10-19T15:37:34;4.38;;;3.03;;
63492;SDS011;49638;47.526;10.028;2023-10-19T15:40:34;6.85;;;3.58;;
63492;SDS011;49638;47.526;10.028;2023-10-19T15:43:34;5.70;;;3.03;;
63492;SDS011;49638;47.526;10.028;2023-10-19T15:46:35;5.47;;;3.30;;
63492;SDS011;49638;47.526;10.028;2023-10-19T15:49:45;6.03;;;3.40;;
63492;SDS011;49638;47.526;10.028;2023-10-19T15:52:49;6.47;;;3.20;;
63492;SDS011;49638;47.526;10.028;2023-10-19T15:55:51;7.47;;;3.60;;
63492;SDS011;49638;47.526;10.028;2023-10-19T15:58:51;6.43;;;3.38;;
63492;SDS011;49638;47.526;10.028;2023-10-19T16:01:51;7.28;;;3.72;;
63492;SDS011;49638;47.526;10.028;2023-10-19T16:04:52;5.40;;;3.67;;
63492;SDS011;49638;47.526;10.028;2023-10-19T16:07:52;5.15;;;3.33;;
63492;SDS011;49638;47.526;10.028;2023-10-19T16:10:52;6.68;;;4.57;;
63492;SDS011;49638;47.526;10.028;2023-10-19T16:13:53;7.80;;;4.35;;
63492;SDS011;49638;47.526;10.028;2023-10-19T16:17:03;6.20;;;3.05;;
63492;SDS011;49638;47.526;10.028;2023-10-19T16:20:03;15.90;;;10.77;;
63492;SDS011;49638;47.526;10.028;2023-10-19T16:23:07;7.53;;;5.05;;
63492;SDS011;49638;47.526;10.028;2023-10-19T16:26:07;8.55;;;5.00;;
63492;SDS011;49638;47.526;10.028;2023-10-19T16:29:08;4.15;;;3.65;;
63492;SDS011;49638;47.526;10.028;2023-10-19T16:32:17;4.05;;;3.22;;
63492;SDS011;49638;47.526;10.028;2023-10-19T16:35:19;6.55;;;3.72;;
63492;SDS011;49638;47.526;10.028;2023-10-19T16:38:19;8.50;;;3.45;;
63492;SDS011;49638;47.526;10.028;2023-10-19T16:41:19;10.07;;;7.75;;
63492;SDS011;49638;47.526;10.028;2023-10-19T16:44:22;10.98;;;4.25;;
63492;SDS011;49638;47.526;10.028;2023-10-19T16:47:22;6.63;;;3.75;;
63492;SDS011;49638;47.526;10.028;2023-10-19T16:50:22;5.88;;;3.15;;
63492;SDS011;49638;47.526;10.028;2023-10-19T16:53:23;4.68;;;2.80;;
63492;SDS011;49638;47.526;10.028;2023-10-19T16:56:23;3.17;;;2.75;;
63492;SDS011;49638;47.526;10.028;2023-10-19T16:59:23;5.65;;;3.08;;
63492;SDS011;49638;47.526;10.028;2023-10-19T17:02:24;3.83;;;2.83;;
63492;SDS011;49638;47.526;10.028;2023-10-19T17:05:25;5.50;;;4.10;;
63492;SDS011;49638;47.526;10.028;2023-10-19T17:08:26;14.73;;;7.22;;
63492;SDS011;49638;47.526;10.028;2023-10-19T17:11:26;10.80;;;6.35;;
63492;SDS011;49638;47.526;10.028;2023-10-19T17:14:26;10.57;;;7.22;;
63492;SDS011;49638;47.526;10.028;2023-10-19T17:17:27;6.65;;;4.65;;
63492;SDS011;49638;47.526;10.028;2023-10-19T17:20:27;7.57;;;3.92;;
63492;SDS011;49638;47.526;10.028;2023-10-19T17:23:29;5.65;;;3.28;;
63492;SDS011;49638;47.526;10.028;2023-10-19T17:26:30;5.65;;;4.10;;
63492;SDS011;49638;47.526;10.028;2023-10-19T17:29:30;6.80;;;3.67;;
63492;SDS011;49638;47.526;10.028;2023-10-19T17:32:31;5.90;;;4.22;;
63492;SDS011;49638;47.526;10.028;2023-10-19T17:35:32;4.43;;;2.80;;
63492;SDS011;49638;47.526;10.028;2023-10-19T17:38:33;7.13;;;4.40;;
63492;SDS011;49638;47.526;10.028;2023-10-19T17:41:33;13.93;;;6.97;;
63492;SDS011;49638;47.526;10.028;2023-10-19T17:44:33;20.73;;;12.05;;
63492;SDS011;49638;47.526;10.028;2023-10-19T17:47:34;13.18;;;6.70;;
63492;SDS011;49638;47.526;10.028;2023-10-19T17:50:34;6.35;;;4.85;;
63492;SDS011;49638;47.526;10.028;2023-10-19T17:53:35;8.95;;;5.55;;
63492;SDS011;49638;47.526;10.028;2023-10-19T17:56:38;5.43;;;3.90;;
63492;SDS011;49638;47.526;10.028;2023-10-19T17:59:38;8.57;;;3.97;;
63492;SDS011;49638;47.526;10.028;2023-10-19T18:02:38;5.93;;;4.25;;
63492;SDS011;49638;47.526;10.028;2023-10-19T18:05:47;5.03;;;3.42;;
63492;SDS011;49638;47.526;10.028;2023-10-19T18:08:48;6.00;;;3.40;;
63492;SDS011;49638;47.526;10.028;2023-10-19T18:11:48;5.32;;;4.50;;
63492;SDS011;49638;47.526;10.028;2023-10-19T18:14:49;8.93;;;4.40;;
63492;SDS011;49638;47.526;10.028;2023-10-19T18:17:49;9.23;;;3.70;;
63492;SDS011;49638;47.526;10.028;2023-10-19T18:20:51;8.65;;;3.95;;
63492;SDS011;49638;47.526;10.028;2023-10-19T18:23:52;6.28;;;4.43;;